createdAt,value
2023-02-11T00:01:06.988Z,82.91
2023-02-11T00:03:33.931Z,83.72
2023-02-11T00:06:01.879Z,83.99
2023-02-11T00:08:28.856Z,83.01
2023-02-11T00:10:56.917Z,83.24
2023-02-11T00:13:24.792Z,84.72
2023-02-11T00:15:51.620Z,84.28
2023-02-11T00:18:18.417Z,83.42
2023-02-11T00:20:44.983Z,82.87
2023-02-11T00:23:11.870Z,84.13
2023-02-11T00:25:40.787Z,84.03
2023-02-11T00:28:07.715Z,83.53
2023-02-11T00:30:34.808Z,83.84
2023-02-11T00:33:01.757Z,82.92
2023-02-11T00:35:29.540Z,82.67
2023-02-11T00:37:56.615Z,82.42
2023-02-11T00:40:24.134Z,82.38
2023-02-11T00:42:51.044Z,83.06
2023-02-11T00:45:17.740Z,82.72
2023-02-11T00:47:45.698Z,82.28
2023-02-11T00:50:12.660Z,82.13
2023-02-11T00:52:39.261Z,82.35
2023-02-11T00:55:06.280Z,82.61
2023-02-11T00:57:32.879Z,81.89
2023-02-11T00:59:59.410Z,81.94
2023-02-11T01:02:26.146Z,82.15
2023-02-11T01:04:52.709Z,81.12
2023-02-11T01:07:19.613Z,80.44
2023-02-11T01:09:46.147Z,80.08
2023-02-11T01:12:12.752Z,79.49
2023-02-11T01:14:40.896Z,78.52
2023-02-11T01:17:07.573Z,77.99
2023-02-11T01:19:34.183Z,78.15
2023-02-11T01:22:00.798Z,77.76
2023-02-11T01:24:27.395Z,77.31
2023-02-11T01:26:54.336Z,77.33
2023-02-11T01:29:24.353Z,77.22
2023-02-11T01:31:54.650Z,77.36
2023-02-11T01:34:21.264Z,77.38
2023-02-11T01:36:47.846Z,78.01
2023-02-11T01:39:14.512Z,77.87
2023-02-11T01:41:41.132Z,77.84
2023-02-11T01:44:22.921Z,77.39
2023-02-11T01:46:49.926Z,77.54
2023-02-11T01:49:25.661Z,77.48
2023-02-11T01:51:58.679Z,77.22
2023-02-11T01:54:50.213Z,76.37
2023-02-11T01:57:24.902Z,75.66
2023-02-11T02:00:15.732Z,76.03
2023-02-11T02:02:58.614Z,75.99
2023-02-11T02:05:48.918Z,75.70
2023-02-11T02:08:25.638Z,75.18
2023-02-11T02:10:56.354Z,75.22
2023-02-11T02:13:24.207Z,75.05
2023-02-11T02:15:54.908Z,75.33
2023-02-11T02:18:36.326Z,75.46
2023-02-11T02:21:11.922Z,75.42
2023-02-11T02:24:15.942Z,74.99
2023-02-11T02:27:10.118Z,75.39
2023-02-11T02:29:55.225Z,75.95
2023-02-11T02:32:24.585Z,75.83
2023-02-11T02:34:58.088Z,76.20
2023-02-11T02:37:34.713Z,75.64
2023-02-11T02:40:07.937Z,76.22
2023-02-11T02:42:35.277Z,76.45
2023-02-11T02:45:02.021Z,76.19
2023-02-11T02:47:28.779Z,75.89
2023-02-11T02:49:55.283Z,75.53
2023-02-11T02:52:39.180Z,76.52
2023-02-11T02:55:20.462Z,76.97
2023-02-11T02:58:04.589Z,76.77
2023-02-11T03:00:54.319Z,75.60
2023-02-11T03:03:30.376Z,76.18
2023-02-11T03:06:04.162Z,76.24
2023-02-11T03:08:40.469Z,76.53
2023-02-11T03:11:09.390Z,76.45
2023-02-11T03:13:39.233Z,75.87
2023-02-11T03:16:27.021Z,76.37
2023-02-11T03:19:01.751Z,75.78
2023-02-11T03:21:33.157Z,75.77
2023-02-11T03:24:05.776Z,76.51
2023-02-11T03:26:46.758Z,76.60
2023-02-11T03:29:55.321Z,77.35
2023-02-11T03:32:31.841Z,77.73
2023-02-11T03:35:03.898Z,78.48
2023-02-11T03:37:43.403Z,78.17
2023-02-11T03:40:11.737Z,78.30
2023-02-11T03:42:44.444Z,77.23
2023-02-11T03:45:17.076Z,76.85
2023-02-11T03:47:49.209Z,76.75
2023-02-11T03:50:17.195Z,77.90
2023-02-11T03:52:44.129Z,77.91
2023-02-11T03:55:18.356Z,78.26
2023-02-11T03:57:45.348Z,78.57
2023-02-11T04:00:12.696Z,79.22
2023-02-11T04:02:40.708Z,79.87
2023-02-11T04:05:09.951Z,80.34
2023-02-11T04:07:36.481Z,81.14
2023-02-11T04:10:03.471Z,80.21
2023-02-11T04:12:30.238Z,80.83
2023-02-11T04:14:56.732Z,80.54
2023-02-11T04:17:23.629Z,81.40
2023-02-11T04:19:50.258Z,81.75
2023-02-11T04:22:17.014Z,81.64
2023-02-11T04:24:44.056Z,82.85
2023-02-11T04:27:10.954Z,83.03
2023-02-11T04:29:37.738Z,83.13
2023-02-11T04:32:04.464Z,83.15
2023-02-11T04:34:31.165Z,84.34
2023-02-11T04:36:57.707Z,83.56
2023-02-11T04:39:24.315Z,82.92
2023-02-11T04:41:50.832Z,82.48
2023-02-11T04:44:17.440Z,82.28
2023-02-11T04:46:43.997Z,82.07
2023-02-11T04:49:15.568Z,81.92
2023-02-11T04:51:42.751Z,82.47
2023-02-11T04:54:09.324Z,83.05
2023-02-11T04:56:35.910Z,83.69
2023-02-11T04:59:03.542Z,83.35
2023-02-11T05:01:30.308Z,83.70
2023-02-11T05:03:57.183Z,84.29
2023-02-11T05:06:23.787Z,84.50
2023-02-11T05:08:50.512Z,84.20
2023-02-11T05:11:20.016Z,84.90
2023-02-11T05:13:47.333Z,85.91
2023-02-11T05:16:15.327Z,86.25
2023-02-11T05:18:43.765Z,86.15
2023-02-11T05:21:13.280Z,87.65
2023-02-11T05:23:40.482Z,87.82
2023-02-11T05:26:07.096Z,87.13
2023-02-11T05:28:33.819Z,87.54
2023-02-11T05:31:00.959Z,88.43
2023-02-11T05:33:27.793Z,88.27
2023-02-11T05:36:04.269Z,89.60
2023-02-11T05:38:30.911Z,90.50
2023-02-11T05:40:57.581Z,90.59
2023-02-11T05:43:24.214Z,89.67
2023-02-11T05:45:51.146Z,89.65
2023-02-11T05:48:18.041Z,89.56
2023-02-11T05:50:45.343Z,89.58
2023-02-11T05:53:12.485Z,89.41
2023-02-11T05:55:39.312Z,89.32
2023-02-11T05:58:07.895Z,89.64
2023-02-11T06:00:34.919Z,90.06
2023-02-11T06:03:01.874Z,90.16
2023-02-11T06:05:28.766Z,90.53
2023-02-11T06:07:55.965Z,90.35
2023-02-11T06:10:22.706Z,89.30
2023-02-11T06:12:49.384Z,89.12
2023-02-11T06:15:15.977Z,89.00
2023-02-11T06:17:42.526Z,87.93
2023-02-11T06:20:10.458Z,87.42
2023-02-11T06:22:37.900Z,87.76
2023-02-11T06:25:05.255Z,88.00
2023-02-11T06:27:31.903Z,88.05
2023-02-11T06:29:58.847Z,88.70
2023-02-11T06:32:43.245Z,89.28
2023-02-11T06:35:12.063Z,88.36
2023-02-11T06:37:39.429Z,87.98
2023-02-11T06:40:06.579Z,87.35
2023-02-11T06:42:33.079Z,86.83
2023-02-11T06:44:59.849Z,88.28
2023-02-11T06:47:26.380Z,88.34
2023-02-11T06:49:52.941Z,88.85
2023-02-11T06:52:19.462Z,88.83
2023-02-11T06:54:46.105Z,88.41
2023-02-11T06:57:12.662Z,87.55
2023-02-11T06:59:39.602Z,88.29
2023-02-11T07:02:06.233Z,87.76
2023-02-11T07:04:33.117Z,86.73
2023-02-11T07:06:59.716Z,87.75
2023-02-11T07:09:26.557Z,88.51
2023-02-11T07:11:53.070Z,88.47
2023-02-11T07:14:19.750Z,89.24
2023-02-11T07:16:46.438Z,89.00
2023-02-11T07:19:13.013Z,89.33
2023-02-11T07:21:40.020Z,90.04
2023-02-11T07:24:10.761Z,89.94
2023-02-11T07:26:38.526Z,89.28
2023-02-11T07:29:05.549Z,88.77
2023-02-11T07:31:32.425Z,90.55
2023-02-11T07:34:00.870Z,88.70
2023-02-11T07:36:29.229Z,89.04
2023-02-11T07:38:55.899Z,88.15
2023-02-11T07:41:23.972Z,88.23
2023-02-11T07:43:51.465Z,89.77
2023-02-11T07:46:26.778Z,89.31
2023-02-11T07:48:53.605Z,88.82
2023-02-11T07:51:29.512Z,90.48
2023-02-11T07:53:58.261Z,90.08
2023-02-11T07:56:25.676Z,90.37
2023-02-11T07:58:53.050Z,90.22
2023-02-11T08:01:24.904Z,89.53
2023-02-11T08:03:52.316Z,90.30
2023-02-11T08:06:21.540Z,89.73
2023-02-11T08:08:49.190Z,89.28
2023-02-11T08:11:22.548Z,89.81
2023-02-11T08:13:50.078Z,89.40
2023-02-11T08:16:23.574Z,89.83
2023-02-11T08:18:51.665Z,89.50
2023-02-11T08:21:19.659Z,88.43
2023-02-11T08:23:47.153Z,88.40
2023-02-11T08:26:16.851Z,88.34
2023-02-11T08:28:45.732Z,88.34
2023-02-11T08:31:19.614Z,88.31
2023-02-11T08:33:47.044Z,90.83
2023-02-11T08:36:19.308Z,91.56
2023-02-11T08:38:46.887Z,92.10
2023-02-11T08:41:14.921Z,92.61
2023-02-11T08:43:43.434Z,92.90
2023-02-11T08:46:14.314Z,92.37
2023-02-11T08:48:41.459Z,91.77
2023-02-11T08:51:10.063Z,92.35
2023-02-11T08:53:37.230Z,92.46
2023-02-11T08:56:03.986Z,93.08
2023-02-11T08:58:30.587Z,92.90
2023-02-11T09:00:57.100Z,93.33
2023-02-11T09:03:24.156Z,93.97
2023-02-11T09:05:53.140Z,94.26
2023-02-11T09:08:21.057Z,93.74
2023-02-11T09:10:48.106Z,93.46
2023-02-11T09:13:16.899Z,93.90
2023-02-11T09:15:46.810Z,93.31
2023-02-11T09:18:14.232Z,93.47
2023-02-11T09:20:40.905Z,93.78
2023-02-11T09:23:07.561Z,94.19
2023-02-11T09:25:34.606Z,94.43
2023-02-11T09:28:01.306Z,94.39
2023-02-11T09:30:27.976Z,94.89
2023-02-11T09:32:54.580Z,94.26
2023-02-11T09:35:21.179Z,94.15
2023-02-11T09:37:47.748Z,93.39
2023-02-11T09:40:15.765Z,93.11
2023-02-11T09:42:50.758Z,93.02
2023-02-11T09:45:29.365Z,94.16
2023-02-11T09:47:57.958Z,94.20
2023-02-11T09:50:43.254Z,94.03
2023-02-11T09:53:25.141Z,94.61
2023-02-11T09:55:59.622Z,94.63
2023-02-11T09:58:30.232Z,94.73
2023-02-11T10:01:30.603Z,93.98
2023-02-11T10:04:25.000Z,93.94
2023-02-11T10:06:55.081Z,94.96
2023-02-11T10:09:37.311Z,93.12
2023-02-11T10:12:31.646Z,92.89
2023-02-11T10:15:07.168Z,92.28
2023-02-11T10:17:52.553Z,93.03
2023-02-11T10:20:37.986Z,93.31
2023-02-11T10:23:15.207Z,92.96
2023-02-11T10:25:49.121Z,92.59
2023-02-11T10:28:24.978Z,91.91
2023-02-11T10:31:09.657Z,92.68
2023-02-11T10:34:05.408Z,92.45
2023-02-11T10:36:38.279Z,92.66
2023-02-11T10:39:23.543Z,91.73
2023-02-11T10:41:57.996Z,91.69
2023-02-11T10:44:26.949Z,91.33
2023-02-11T10:46:54.579Z,91.30
2023-02-11T10:49:35.326Z,91.68
2023-02-11T10:52:25.968Z,91.13
2023-02-11T10:55:17.656Z,90.80
2023-02-11T10:57:57.928Z,90.78
2023-02-11T11:00:37.086Z,90.18
2023-02-11T11:03:15.248Z,90.26
2023-02-11T11:06:01.987Z,89.88
2023-02-11T11:08:50.579Z,88.20
2023-02-11T11:11:25.606Z,87.40
2023-02-11T11:13:52.376Z,88.16
2023-02-11T11:16:27.997Z,90.46
2023-02-11T11:19:20.377Z,89.58
2023-02-11T11:21:55.244Z,88.98
2023-02-11T11:24:29.430Z,90.24
2023-02-11T11:27:00.816Z,90.80
2023-02-11T11:29:28.635Z,92.33
2023-02-11T11:32:00.679Z,92.18
2023-02-11T11:34:32.062Z,92.20
2023-02-11T11:37:00.566Z,92.04
2023-02-11T11:39:32.783Z,91.54
2023-02-11T11:42:25.141Z,90.63
2023-02-11T11:45:01.720Z,90.34
2023-02-11T11:47:43.559Z,90.28
2023-02-11T11:50:30.748Z,89.70
2023-02-11T11:53:04.394Z,89.46
2023-02-11T11:55:42.059Z,89.71
2023-02-11T11:58:23.040Z,90.96
2023-02-11T12:01:23.633Z,90.51
2023-02-11T12:04:03.952Z,90.00
2023-02-11T12:06:53.838Z,89.84
2023-02-11T12:09:31.397Z,89.46
2023-02-11T12:12:23.508Z,89.64
2023-02-11T12:15:08.247Z,89.77
2023-02-11T12:17:50.814Z,91.34
2023-02-11T12:20:26.014Z,91.66
2023-02-11T12:23:31.940Z,90.78
2023-02-11T12:26:12.405Z,91.53
2023-02-11T12:29:07.588Z,91.24
2023-02-11T12:31:47.097Z,91.28
2023-02-11T12:34:40.470Z,91.04
2023-02-11T12:37:24.717Z,92.38
2023-02-11T12:39:56.734Z,91.81
2023-02-11T12:42:48.333Z,92.18
2023-02-11T12:45:33.654Z,92.83
2023-02-11T12:48:38.045Z,93.16
2023-02-11T12:51:16.835Z,92.63
2023-02-11T12:54:14.221Z,92.65
2023-02-11T12:57:02.249Z,93.48
2023-02-11T13:00:08.777Z,92.54
2023-02-11T13:02:47.385Z,91.98
2023-02-11T13:05:19.621Z,92.66
2023-02-11T13:07:47.991Z,91.24
2023-02-11T13:10:15.423Z,90.70
2023-02-11T13:13:05.162Z,90.37
2023-02-11T13:15:32.889Z,91.27
2023-02-11T13:18:09.038Z,91.73
2023-02-11T13:20:58.843Z,91.73
2023-02-11T13:23:50.265Z,90.63
2023-02-11T13:26:25.016Z,90.90
2023-02-11T13:28:56.216Z,90.82
2023-02-11T13:31:26.943Z,91.14
2023-02-11T13:33:53.781Z,90.93
2023-02-11T13:36:23.137Z,89.53
2023-02-11T13:38:56.483Z,90.56
2023-02-11T13:41:28.389Z,91.20
2023-02-11T13:44:08.600Z,90.48
2023-02-11T13:46:57.186Z,90.43
2023-02-11T13:49:26.222Z,90.70
2023-02-11T13:51:54.232Z,88.16
2023-02-11T13:54:34.525Z,88.61
2023-02-11T13:57:19.446Z,87.44
2023-02-11T13:59:55.610Z,86.59
2023-02-11T14:02:50.008Z,86.20
2023-02-11T14:05:51.689Z,84.88
2023-02-11T14:08:40.167Z,86.10
2023-02-11T14:11:32.482Z,84.69
2023-02-11T14:14:08.134Z,85.51
2023-02-11T14:16:38.257Z,85.42
2023-02-11T14:19:06.346Z,85.56
2023-02-11T14:21:39.646Z,86.21
2023-02-11T14:24:06.905Z,86.44
2023-02-11T14:27:01.589Z,85.98
2023-02-11T14:29:36.126Z,86.69
2023-02-11T14:32:08.857Z,86.72
2023-02-11T14:35:00.509Z,86.15
2023-02-11T14:37:49.338Z,86.24
2023-02-11T14:40:34.785Z,86.09
2023-02-11T14:43:20.868Z,85.19
2023-02-11T14:45:55.084Z,85.63
2023-02-11T14:48:29.368Z,84.97
2023-02-11T14:51:03.467Z,84.74
2023-02-11T14:53:33.105Z,84.46
2023-02-11T14:56:00.112Z,83.96
2023-02-11T14:58:32.170Z,83.28
2023-02-11T15:01:00.677Z,83.90
2023-02-11T15:03:38.985Z,84.12
2023-02-11T15:06:27.929Z,83.25
2023-02-11T15:09:02.594Z,83.94
2023-02-11T15:11:34.057Z,85.09
2023-02-11T15:14:26.998Z,84.67
2023-02-11T15:16:58.696Z,85.22
2023-02-11T15:19:38.425Z,85.88
2023-02-11T15:22:21.776Z,85.28
2023-02-11T15:25:07.714Z,84.36
2023-02-11T15:27:38.050Z,84.57
2023-02-11T15:30:23.764Z,84.32
2023-02-11T15:32:53.756Z,84.02
2023-02-11T15:35:20.388Z,83.85
2023-02-11T15:37:48.951Z,83.71
2023-02-11T15:40:24.753Z,83.33
2023-02-11T15:43:06.320Z,82.98
2023-02-11T15:45:34.449Z,81.87
2023-02-11T15:48:20.125Z,82.80
2023-02-11T15:50:58.541Z,83.21
2023-02-11T15:53:43.179Z,83.00
2023-02-11T15:56:26.583Z,82.92
2023-02-11T15:58:56.701Z,83.31
2023-02-11T16:01:35.608Z,82.87
2023-02-11T16:04:05.467Z,83.16
2023-02-11T16:06:40.507Z,83.53
2023-02-11T16:09:11.047Z,84.17
2023-02-11T16:11:57.892Z,84.27
2023-02-11T16:14:39.157Z,83.74
2023-02-11T16:17:10.918Z,83.30
2023-02-11T16:19:45.128Z,84.08
2023-02-11T16:22:17.587Z,84.18
2023-02-11T16:24:47.506Z,84.67
2023-02-11T16:27:20.211Z,85.39
2023-02-11T16:29:49.333Z,83.23
2023-02-11T16:32:25.603Z,81.87
2023-02-11T16:34:53.797Z,81.79
2023-02-11T16:37:20.368Z,81.41
2023-02-11T16:39:47.097Z,80.24
2023-02-11T16:42:13.624Z,80.65
2023-02-11T16:44:40.421Z,81.21
2023-02-11T16:47:17.444Z,80.20
2023-02-11T16:49:44.182Z,80.93
2023-02-11T16:52:16.645Z,81.33
2023-02-11T16:54:43.251Z,80.49
2023-02-11T16:57:18.891Z,82.17
2023-02-11T16:59:46.502Z,81.27
2023-02-11T17:02:18.426Z,82.00
2023-02-11T17:04:45.162Z,81.19
2023-02-11T17:07:12.322Z,81.44
2023-02-11T17:09:39.251Z,82.24
2023-02-11T17:12:06.162Z,82.31
2023-02-11T17:14:32.784Z,82.24
2023-02-11T17:16:59.325Z,82.01
2023-02-11T17:19:26.423Z,81.90
2023-02-11T17:21:53.572Z,81.10
2023-02-11T17:24:21.568Z,81.71
2023-02-11T17:26:48.957Z,81.26
2023-02-11T17:29:19.606Z,82.36
2023-02-11T17:31:46.283Z,82.35
2023-02-11T17:34:12.950Z,82.07
2023-02-11T17:36:41.273Z,82.53
2023-02-11T17:39:08.846Z,83.23
2023-02-11T17:41:39.746Z,82.95
2023-02-11T17:44:08.412Z,82.71
2023-02-11T17:46:35.725Z,82.13
2023-02-11T17:49:03.289Z,82.72
2023-02-11T17:51:35.326Z,81.67
2023-02-11T17:54:06.385Z,80.52
2023-02-11T17:56:34.430Z,80.35
2023-02-11T17:59:02.352Z,79.12
2023-02-11T18:01:29.981Z,78.95
2023-02-11T18:03:56.506Z,79.03
2023-02-11T18:06:23.241Z,78.17
2023-02-11T18:08:49.863Z,78.76
2023-02-11T18:11:16.824Z,77.57
2023-02-11T18:13:45.128Z,78.23
2023-02-11T18:16:15.735Z,78.89
2023-02-11T18:18:45.381Z,79.11
2023-02-11T18:21:15.765Z,78.17
2023-02-11T18:23:43.073Z,78.37
2023-02-11T18:26:11.956Z,77.83
2023-02-11T18:28:39.490Z,78.69
2023-02-11T18:31:07.824Z,78.61
2023-02-11T18:33:36.389Z,79.00
2023-02-11T18:36:07.826Z,78.78
2023-02-11T18:38:35.292Z,78.57
2023-02-11T18:41:02.124Z,77.96
2023-02-11T18:43:31.656Z,78.67
2023-02-11T18:45:58.311Z,78.33
2023-02-11T18:48:26.981Z,77.42
2023-02-11T18:50:54.534Z,77.84
2023-02-11T18:53:22.082Z,77.81
2023-02-11T18:55:49.058Z,77.28
2023-02-11T18:58:15.797Z,77.51
2023-02-11T19:00:45.586Z,77.81
2023-02-11T19:03:12.679Z,77.04
2023-02-11T19:05:47.493Z,77.26
2023-02-11T19:08:15.293Z,78.09
2023-02-11T19:10:44.055Z,78.71
2023-02-11T19:13:11.552Z,78.98
2023-02-11T19:15:42.762Z,78.98
2023-02-11T19:18:10.571Z,79.30
2023-02-11T19:20:42.210Z,79.84
2023-02-11T19:23:09.427Z,80.80
2023-02-11T19:25:36.034Z,80.68
2023-02-11T19:28:03.326Z,80.40
2023-02-11T19:30:30.092Z,81.73
2023-02-11T19:32:57.557Z,82.89
2023-02-11T19:35:25.195Z,83.21
2023-02-11T19:37:52.071Z,83.37
2023-02-11T19:40:21.041Z,83.46
2023-02-11T19:42:47.680Z,83.73
2023-02-11T19:45:14.291Z,83.56
2023-02-11T19:47:40.954Z,83.89
2023-02-11T19:50:08.716Z,83.51
2023-02-11T19:52:38.219Z,83.10
2023-02-11T19:55:05.307Z,84.06
2023-02-11T19:57:31.943Z,84.00
2023-02-11T19:59:58.697Z,84.37
2023-02-11T20:02:25.394Z,84.84
2023-02-11T20:04:51.911Z,84.63
2023-02-11T20:07:18.629Z,83.98
2023-02-11T20:09:45.362Z,83.11
2023-02-11T20:12:12.155Z,82.81
2023-02-11T20:14:38.986Z,82.14
2023-02-11T20:17:05.558Z,80.25
2023-02-11T20:19:32.290Z,81.74
2023-02-11T20:21:59.010Z,81.72
2023-02-11T20:24:25.658Z,80.02
2023-02-11T20:26:55.382Z,81.24
2023-02-11T20:29:23.517Z,80.56
2023-02-11T20:31:50.951Z,81.58
2023-02-11T20:34:18.664Z,81.71
2023-02-11T20:36:51.534Z,81.38
2023-02-11T20:39:21.526Z,81.63
2023-02-11T20:41:48.424Z,82.95
2023-02-11T20:44:15.148Z,82.41
2023-02-11T20:46:48.155Z,84.05
2023-02-11T20:49:18.683Z,84.37
2023-02-11T20:51:46.292Z,83.77
2023-02-11T20:54:16.082Z,83.16
2023-02-11T20:56:44.508Z,80.51
2023-02-11T20:59:13.895Z,82.27
2023-02-11T21:01:43.969Z,81.69
2023-02-11T21:04:13.279Z,81.33
2023-02-11T21:06:45.206Z,81.50
2023-02-11T21:09:14.912Z,81.30
2023-02-11T21:11:42.425Z,80.61
2023-02-11T21:14:10.201Z,80.47
2023-02-11T21:16:36.822Z,80.34
2023-02-11T21:19:04.268Z,80.31
2023-02-11T21:21:35.772Z,82.61
2023-02-11T21:24:02.561Z,83.50
2023-02-11T21:26:29.860Z,82.78
2023-02-11T21:28:56.473Z,83.73
2023-02-11T21:31:30.488Z,83.67
2023-02-11T21:33:59.371Z,84.07
2023-02-11T21:36:27.465Z,83.61
2023-02-11T21:38:54.537Z,83.75
2023-02-11T21:41:22.340Z,82.75
2023-02-11T21:43:49.598Z,81.73
2023-02-11T21:46:18.293Z,81.85
2023-02-11T21:48:45.798Z,82.06
2023-02-11T21:51:19.714Z,82.43
2023-02-11T21:53:46.916Z,82.86
2023-02-11T21:56:16.382Z,81.96
2023-02-11T21:58:45.745Z,82.21
2023-02-11T22:01:19.588Z,81.87
2023-02-11T22:03:46.845Z,82.11
2023-02-11T22:06:21.240Z,82.63
2023-02-11T22:08:50.978Z,82.85
2023-02-11T22:11:18.634Z,82.50
2023-02-11T22:13:46.264Z,83.08
2023-02-11T22:16:16.556Z,83.20
2023-02-11T22:18:46.593Z,82.80
2023-02-11T22:21:16.539Z,82.58
2023-02-11T22:23:44.058Z,82.63
2023-02-11T22:26:13.606Z,82.81
2023-02-11T22:28:40.985Z,81.53
2023-02-11T22:31:11.806Z,82.13
2023-02-11T22:33:38.549Z,82.29
2023-02-11T22:36:07.954Z,82.46
2023-02-11T22:38:35.087Z,82.95
2023-02-11T22:41:06.745Z,82.04
2023-02-11T22:43:33.796Z,82.29
2023-02-11T22:46:01.856Z,82.11
2023-02-11T22:48:29.038Z,83.14
2023-02-11T22:50:55.732Z,83.63
2023-02-11T22:53:25.473Z,84.15
2023-02-11T22:55:52.610Z,83.99
2023-02-11T22:58:19.580Z,83.50
2023-02-11T23:00:46.169Z,82.34
2023-02-11T23:03:12.901Z,82.98
2023-02-11T23:05:41.210Z,81.73
2023-02-11T23:08:10.150Z,79.98
2023-02-11T23:10:38.521Z,81.09
2023-02-11T23:13:06.991Z,81.63
2023-02-11T23:15:34.146Z,81.22
2023-02-11T23:18:01.086Z,79.37
2023-02-11T23:20:27.769Z,79.90
2023-02-11T23:22:54.433Z,79.15
2023-02-11T23:25:20.997Z,78.58
2023-02-11T23:27:47.783Z,78.78
2023-02-11T23:30:14.596Z,78.03
2023-02-11T23:32:41.499Z,77.67
2023-02-11T23:35:08.552Z,77.20
2023-02-11T23:37:35.510Z,77.80
2023-02-11T23:40:02.121Z,78.04
2023-02-11T23:42:29.142Z,78.18
2023-02-11T23:44:55.965Z,77.24
2023-02-11T23:47:22.775Z,77.96
2023-02-11T23:49:49.450Z,77.69
2023-02-11T23:52:16.441Z,77.42
2023-02-11T23:54:43.326Z,77.18
2023-02-11T23:57:10.019Z,77.43
2023-02-11T23:59:36.727Z,77.18
